Estación Meteorológica Peña el Pijo (Robertgarden) [ 05/21/19 05:02:31 CEST ]

Fecha Hora Presion(HPa) Temp (°C) Humedad % Rocio (°C) Viento ( m/s) Direccion Lluvia 1Hora(mm) Lluvia 24H(mm) LLuvia Total(mm)
2018-Dec-20 01:01:47 1012.700 1.8 65 -4.1         160.58
2018-Dec-20 02:03:07 1012.700 2.1 65 -3.8         160.58
2018-Dec-20 03:01:34 1012.800 2.7 64 -3.5         160.58
2018-Dec-20 04:01:53 1012.900 4.2 63 -2.3         160.58
2018-Dec-20 05:01:31 1013.200 4.6 64 -1.7         160.58
2018-Dec-20 06:01:48 1013.000 4.2 68 -1.2         160.58
2018-Dec-20 07:01:47 1013.700 3.3 71 -1.4         160.58
2018-Dec-20 08:01:31 1014.100 3.1 74 -1.1         160.58
2018-Dec-20 09:01:28 1015.000 3.6 76 -0.2         160.58
2018-Dec-20 10:01:45 1015.200 5.9 76 2.0         160.58
2018-Dec-20 11:01:40 1015.000 7.6 71 2.7         160.58
2018-Dec-20 12:01:31 1014.400 10.6 62 3.6         160.58
2018-Dec-20 13:01:29 1013.900 12.9 47 1.8         160.58
2018-Dec-20 14:01:46 1013.800 14.4 44 2.2         160.58
2018-Dec-20 15:01:48 1013.600 14.5 44 2.3 2.7 NNW     160.58
2018-Dec-20 16:01:47 1014.200 12.7 48 1.9         160.58
2018-Dec-20 17:01:42 1014.900 9.8 56 1.4         160.58
2018-Dec-20 18:01:32 1015.800 7.6 62 0.8         160.58
2018-Dec-20 19:01:52 1016.200 5.0 68 -0.4         160.58
2018-Dec-20 20:01:39 1016.800 3.9 72 -0.7         160.58
2018-Dec-20 21:01:53 1017.100 2.8 75 -1.2         160.58
2018-Dec-20 22:01:48 1017.600 2.4 77 -1.2         160.58
2018-Dec-20 23:01:50 1018.100 1.4 78 -2.1         160.58

Temperatura Máxima:14°    Temperatura Mínima:
Presión Máxima:1018.100 Hpa    Presión Mínima:1012.700 Hpa


Volver